sensor_id;sensor_type;location;lat;lon;timestamp;P1;durP1;ratioP1;P2;durP2;ratioP2
78750;SDS011;68070;50.954;11.060;2023-03-13T00:02:39;11.50;;;3.70;;
78750;SDS011;68070;50.954;11.060;2023-03-13T00:05:23;13.80;;;2.60;;
78750;SDS011;68070;50.954;11.060;2023-03-13T00:08:08;8.70;;;2.20;;
78750;SDS011;68070;50.954;11.060;2023-03-13T00:10:52;12.40;;;3.40;;
78750;SDS011;68070;50.954;11.060;2023-03-13T00:16:21;7.40;;;2.00;;
78750;SDS011;68070;50.954;11.060;2023-03-13T00:19:07;7.60;;;1.90;;
78750;SDS011;68070;50.954;11.060;2023-03-13T00:21:51;8.90;;;1.90;;
78750;SDS011;68070;50.954;11.060;2023-03-13T00:24:36;10.10;;;2.10;;
78750;SDS011;68070;50.954;11.060;2023-03-13T00:27:21;7.60;;;2.10;;
78750;SDS011;68070;50.954;11.060;2023-03-13T00:30:06;8.90;;;2.50;;
78750;SDS011;68070;50.954;11.060;2023-03-13T00:32:51;8.20;;;2.10;;
78750;SDS011;68070;50.954;11.060;2023-03-13T00:35:36;3.80;;;1.70;;
78750;SDS011;68070;50.954;11.060;2023-03-13T00:38:20;6.80;;;2.40;;
78750;SDS011;68070;50.954;11.060;2023-03-13T00:41:06;12.10;;;2.60;;
78750;SDS011;68070;50.954;11.060;2023-03-13T00:43:55;7.70;;;1.80;;
78750;SDS011;68070;50.954;11.060;2023-03-13T00:46:40;10.90;;;2.80;;
78750;SDS011;68070;50.954;11.060;2023-03-13T00:49:25;8.60;;;2.60;;
78750;SDS011;68070;50.954;11.060;2023-03-13T00:52:10;3.80;;;1.70;;
78750;SDS011;68070;50.954;11.060;2023-03-13T00:54:55;11.90;;;3.20;;
78750;SDS011;68070;50.954;11.060;2023-03-13T00:57:39;8.70;;;2.90;;
78750;SDS011;68070;50.954;11.060;2023-03-13T01:00:23;7.80;;;2.20;;
78750;SDS011;68070;50.954;11.060;2023-03-13T01:03:09;6.90;;;2.50;;
78750;SDS011;68070;50.954;11.060;2023-03-13T01:05:55;8.70;;;2.50;;
78750;SDS011;68070;50.954;11.060;2023-03-13T01:08:43;8.50;;;2.40;;
78750;SDS011;68070;50.954;11.060;2023-03-13T01:11:30;3.80;;;2.40;;
78750;SDS011;68070;50.954;11.060;2023-03-13T01:14:17;10.70;;;2.20;;
78750;SDS011;68070;50.954;11.060;2023-03-13T01:17:06;8.40;;;1.60;;
78750;SDS011;68070;50.954;11.060;2023-03-13T01:19:50;8.10;;;2.30;;
78750;SDS011;68070;50.954;11.060;2023-03-13T01:22:34;8.00;;;2.50;;
78750;SDS011;68070;50.954;11.060;2023-03-13T01:28:03;9.00;;;2.40;;
78750;SDS011;68070;50.954;11.060;2023-03-13T01:30:48;9.40;;;2.70;;
78750;SDS011;68070;50.954;11.060;2023-03-13T01:33:32;8.10;;;1.90;;
78750;SDS011;68070;50.954;11.060;2023-03-13T01:36:16;7.50;;;1.90;;
78750;SDS011;68070;50.954;11.060;2023-03-13T01:39:02;8.40;;;1.70;;
78750;SDS011;68070;50.954;11.060;2023-03-13T01:41:47;9.40;;;2.00;;
78750;SDS011;68070;50.954;11.060;2023-03-13T01:47:37;8.20;;;1.90;;
78750;SDS011;68070;50.954;11.060;2023-03-13T01:50:26;5.50;;;1.60;;
78750;SDS011;68070;50.954;11.060;2023-03-13T01:53:19;9.60;;;1.60;;
78750;SDS011;68070;50.954;11.060;2023-03-13T01:56:05;11.20;;;2.30;;
78750;SDS011;68070;50.954;11.060;2023-03-13T01:58:55;6.60;;;2.10;;
78750;SDS011;68070;50.954;11.060;2023-03-13T02:01:41;6.20;;;1.60;;
78750;SDS011;68070;50.954;11.060;2023-03-13T02:04:29;3.50;;;1.40;;
78750;SDS011;68070;50.954;11.060;2023-03-13T02:07:17;10.10;;;2.40;;
78750;SDS011;68070;50.954;11.060;2023-03-13T02:10:07;7.80;;;1.70;;
78750;SDS011;68070;50.954;11.060;2023-03-13T02:12:55;5.10;;;1.70;;
78750;SDS011;68070;50.954;11.060;2023-03-13T02:15:40;12.00;;;3.30;;
78750;SDS011;68070;50.954;11.060;2023-03-13T02:18:26;8.80;;;2.80;;
78750;SDS011;68070;50.954;11.060;2023-03-13T02:21:17;8.60;;;2.50;;
78750;SDS011;68070;50.954;11.060;2023-03-13T02:27:27;7.10;;;2.00;;
78750;SDS011;68070;50.954;11.060;2023-03-13T02:30:12;3.50;;;2.10;;
78750;SDS011;68070;50.954;11.060;2023-03-13T02:32:58;7.30;;;2.20;;
78750;SDS011;68070;50.954;11.060;2023-03-13T02:35:45;7.70;;;2.50;;
78750;SDS011;68070;50.954;11.060;2023-03-13T02:38:32;7.40;;;1.80;;
78750;SDS011;68070;50.954;11.060;2023-03-13T02:41:29;8.00;;;3.10;;
78750;SDS011;68070;50.954;11.060;2023-03-13T02:44:17;6.10;;;2.30;;
78750;SDS011;68070;50.954;11.060;2023-03-13T02:47:01;8.40;;;3.00;;
78750;SDS011;68070;50.954;11.060;2023-03-13T02:49:46;9.70;;;2.40;;
78750;SDS011;68070;50.954;11.060;2023-03-13T02:52:37;8.30;;;2.10;;
78750;SDS011;68070;50.954;11.060;2023-03-13T02:55:28;9.40;;;2.70;;
78750;SDS011;68070;50.954;11.060;2023-03-13T02:58:15;5.10;;;1.60;;
78750;SDS011;68070;50.954;11.060;2023-03-13T03:00:59;10.70;;;4.70;;
78750;SDS011;68070;50.954;11.060;2023-03-13T03:03:51;6.90;;;2.30;;
78750;SDS011;68070;50.954;11.060;2023-03-13T03:06:36;6.60;;;2.10;;
78750;SDS011;68070;50.954;11.060;2023-03-13T03:09:21;13.20;;;2.30;;
78750;SDS011;68070;50.954;11.060;2023-03-13T03:12:08;6.90;;;2.70;;
78750;SDS011;68070;50.954;11.060;2023-03-13T03:14:53;6.30;;;1.90;;
78750;SDS011;68070;50.954;11.060;2023-03-13T03:17:37;8.30;;;1.90;;
78750;SDS011;68070;50.954;11.060;2023-03-13T03:20:23;5.60;;;1.90;;
78750;SDS011;68070;50.954;11.060;2023-03-13T03:23:08;4.40;;;2.20;;
78750;SDS011;68070;50.954;11.060;2023-03-13T03:25:53;21.10;;;2.70;;
78750;SDS011;68070;50.954;11.060;2023-03-13T03:28:37;3.20;;;1.20;;
78750;SDS011;68070;50.954;11.060;2023-03-13T03:31:25;5.20;;;2.30;;
78750;SDS011;68070;50.954;11.060;2023-03-13T03:34:10;5.40;;;1.90;;
78750;SDS011;68070;50.954;11.060;2023-03-13T03:36:54;2.20;;;1.50;;
78750;SDS011;68070;50.954;11.060;2023-03-13T03:39:38;5.40;;;2.30;;
78750;SDS011;68070;50.954;11.060;2023-03-13T03:42:23;6.70;;;2.20;;
78750;SDS011;68070;50.954;11.060;2023-03-13T03:45:08;10.00;;;2.50;;
78750;SDS011;68070;50.954;11.060;2023-03-13T03:47:53;6.70;;;1.90;;
78750;SDS011;68070;50.954;11.060;2023-03-13T03:50:38;5.00;;;2.00;;
78750;SDS011;68070;50.954;11.060;2023-03-13T03:53:22;7.90;;;2.20;;
78750;SDS011;68070;50.954;11.060;2023-03-13T03:56:08;4.10;;;2.00;;
78750;SDS011;68070;50.954;11.060;2023-03-13T03:58:54;6.80;;;2.40;;
78750;SDS011;68070;50.954;11.060;2023-03-13T04:04:39;4.20;;;2.10;;
78750;SDS011;68070;50.954;11.060;2023-03-13T04:07:46;5.30;;;2.00;;
78750;SDS011;68070;50.954;11.060;2023-03-13T04:10:30;7.10;;;2.40;;
78750;SDS011;68070;50.954;11.060;2023-03-13T04:13:15;11.00;;;2.70;;
78750;SDS011;68070;50.954;11.060;2023-03-13T04:16:05;3.90;;;1.80;;
78750;SDS011;68070;50.954;11.060;2023-03-13T04:18:51;4.90;;;2.10;;
78750;SDS011;68070;50.954;11.060;2023-03-13T04:21:36;6.80;;;1.70;;
78750;SDS011;68070;50.954;11.060;2023-03-13T04:24:27;8.40;;;1.90;;
78750;SDS011;68070;50.954;11.060;2023-03-13T04:27:13;8.30;;;2.50;;
78750;SDS011;68070;50.954;11.060;2023-03-13T04:29:59;4.80;;;2.00;;
78750;SDS011;68070;50.954;11.060;2023-03-13T04:33:04;7.00;;;2.40;;
78750;SDS011;68070;50.954;11.060;2023-03-13T04:36:07;3.40;;;1.40;;
78750;SDS011;68070;50.954;11.060;2023-03-13T04:39:15;9.90;;;2.60;;
78750;SDS011;68070;50.954;11.060;2023-03-13T04:42:12;4.50;;;1.80;;
78750;SDS011;68070;50.954;11.060;2023-03-13T04:45:22;9.70;;;2.10;;
78750;SDS011;68070;50.954;11.060;2023-03-13T04:48:23;6.30;;;2.50;;
78750;SDS011;68070;50.954;11.060;2023-03-13T04:51:31;5.40;;;1.80;;
78750;SDS011;68070;50.954;11.060;2023-03-13T04:54:47;7.30;;;2.40;;
78750;SDS011;68070;50.954;11.060;2023-03-13T04:58:09;5.90;;;2.20;;
78750;SDS011;68070;50.954;11.060;2023-03-13T05:01:19;6.30;;;2.30;;
78750;SDS011;68070;50.954;11.060;2023-03-13T05:04:30;6.30;;;2.00;;
78750;SDS011;68070;50.954;11.060;2023-03-13T05:07:22;6.20;;;2.00;;
78750;SDS011;68070;50.954;11.060;2023-03-13T05:10:26;4.10;;;1.60;;
78750;SDS011;68070;50.954;11.060;2023-03-13T05:13:46;6.50;;;2.50;;
78750;SDS011;68070;50.954;11.060;2023-03-13T05:16:47;5.10;;;2.20;;
78750;SDS011;68070;50.954;11.060;2023-03-13T05:19:47;8.70;;;2.30;;
78750;SDS011;68070;50.954;11.060;2023-03-13T05:22:41;5.90;;;2.00;;
78750;SDS011;68070;50.954;11.060;2023-03-13T05:25:35;3.00;;;1.50;;
78750;SDS011;68070;50.954;11.060;2023-03-13T05:28:52;7.00;;;2.10;;
78750;SDS011;68070;50.954;11.060;2023-03-13T05:31:57;8.00;;;3.00;;
78750;SDS011;68070;50.954;11.060;2023-03-13T05:35:01;3.50;;;1.50;;
78750;SDS011;68070;50.954;11.060;2023-03-13T05:38:18;3.60;;;1.60;;
78750;SDS011;68070;50.954;11.060;2023-03-13T05:41:21;5.10;;;2.10;;
78750;SDS011;68070;50.954;11.060;2023-03-13T05:44:34;4.20;;;1.50;;
78750;SDS011;68070;50.954;11.060;2023-03-13T05:47:18;2.40;;;1.00;;
78750;SDS011;68070;50.954;11.060;2023-03-13T05:50:22;2.20;;;1.40;;
78750;SDS011;68070;50.954;11.060;2023-03-13T05:53:17;3.10;;;1.50;;
78750;SDS011;68070;50.954;11.060;2023-03-13T05:56:20;3.50;;;1.50;;
78750;SDS011;68070;50.954;11.060;2023-03-13T05:59:11;2.00;;;1.30;;
78750;SDS011;68070;50.954;11.060;2023-03-13T06:02:14;1.50;;;1.00;;
78750;SDS011;68070;50.954;11.060;2023-03-13T06:05:00;1.30;;;0.90;;
78750;SDS011;68070;50.954;11.060;2023-03-13T06:07:45;2.50;;;1.30;;
78750;SDS011;68070;50.954;11.060;2023-03-13T06:10:29;2.10;;;1.30;;
78750;SDS011;68070;50.954;11.060;2023-03-13T06:13:16;3.20;;;1.90;;
78750;SDS011;68070;50.954;11.060;2023-03-13T06:16:02;2.30;;;1.20;;
78750;SDS011;68070;50.954;11.060;2023-03-13T06:18:57;3.10;;;1.10;;
78750;SDS011;68070;50.954;11.060;2023-03-13T06:21:41;2.40;;;1.10;;
78750;SDS011;68070;50.954;11.060;2023-03-13T06:24:26;5.30;;;1.60;;
78750;SDS011;68070;50.954;11.060;2023-03-13T06:27:10;3.70;;;1.10;;
78750;SDS011;68070;50.954;11.060;2023-03-13T06:29:55;1.40;;;0.90;;
78750;SDS011;68070;50.954;11.060;2023-03-13T06:32:39;3.80;;;1.50;;
78750;SDS011;68070;50.954;11.060;2023-03-13T06:35:24;0.70;;;0.60;;
78750;SDS011;68070;50.954;11.060;2023-03-13T06:38:08;5.60;;;0.80;;
78750;SDS011;68070;50.954;11.060;2023-03-13T06:40:54;1.50;;;0.90;;
78750;SDS011;68070;50.954;11.060;2023-03-13T06:43:39;1.20;;;1.00;;
78750;SDS011;68070;50.954;11.060;2023-03-13T06:46:24;2.90;;;1.50;;
78750;SDS011;68070;50.954;11.060;2023-03-13T06:49:08;0.40;;;0.40;;
78750;SDS011;68070;50.954;11.060;2023-03-13T06:51:55;3.60;;;0.60;;
78750;SDS011;68070;50.954;11.060;2023-03-13T06:54:40;1.00;;;0.70;;
78750;SDS011;68070;50.954;11.060;2023-03-13T06:57:25;2.30;;;0.80;;
78750;SDS011;68070;50.954;11.060;2023-03-13T07:00:11;4.90;;;1.30;;
78750;SDS011;68070;50.954;11.060;2023-03-13T07:02:56;0.80;;;0.70;;
78750;SDS011;68070;50.954;11.060;2023-03-13T07:05:40;0.70;;;0.50;;
78750;SDS011;68070;50.954;11.060;2023-03-13T07:08:25;3.40;;;1.10;;
78750;SDS011;68070;50.954;11.060;2023-03-13T07:11:12;1.70;;;0.70;;
78750;SDS011;68070;50.954;11.060;2023-03-13T07:13:57;0.90;;;0.70;;
78750;SDS011;68070;50.954;11.060;2023-03-13T07:16:44;2.00;;;0.90;;
78750;SDS011;68070;50.954;11.060;2023-03-13T07:19:29;1.50;;;0.80;;
78750;SDS011;68070;50.954;11.060;2023-03-13T07:22:13;1.40;;;0.60;;
78750;SDS011;68070;50.954;11.060;2023-03-13T07:24:58;2.60;;;1.10;;
78750;SDS011;68070;50.954;11.060;2023-03-13T07:27:44;1.40;;;0.80;;
78750;SDS011;68070;50.954;11.060;2023-03-13T07:30:28;0.50;;;0.40;;
78750;SDS011;68070;50.954;11.060;2023-03-13T07:33:13;3.50;;;1.30;;
78750;SDS011;68070;50.954;11.060;2023-03-13T07:35:57;2.00;;;1.00;;
78750;SDS011;68070;50.954;11.060;2023-03-13T07:38:42;2.20;;;0.90;;
78750;SDS011;68070;50.954;11.060;2023-03-13T07:41:27;1.70;;;0.60;;
78750;SDS011;68070;50.954;11.060;2023-03-13T07:44:12;1.70;;;1.10;;
78750;SDS011;68070;50.954;11.060;2023-03-13T07:47:00;0.50;;;0.30;;
78750;SDS011;68070;50.954;11.060;2023-03-13T07:49:44;1.00;;;0.60;;
78750;SDS011;68070;50.954;11.060;2023-03-13T07:52:31;1.60;;;1.20;;
78750;SDS011;68070;50.954;11.060;2023-03-13T07:55:15;0.90;;;0.50;;
78750;SDS011;68070;50.954;11.060;2023-03-13T07:58:00;1.30;;;0.70;;
78750;SDS011;68070;50.954;11.060;2023-03-13T08:00:44;0.60;;;0.40;;
78750;SDS011;68070;50.954;11.060;2023-03-13T08:03:29;0.80;;;0.50;;
78750;SDS011;68070;50.954;11.060;2023-03-13T08:06:14;0.60;;;0.60;;
78750;SDS011;68070;50.954;11.060;2023-03-13T08:09:00;0.80;;;0.50;;
78750;SDS011;68070;50.954;11.060;2023-03-13T08:11:44;2.00;;;1.00;;
78750;SDS011;68070;50.954;11.060;2023-03-13T08:14:29;0.60;;;0.20;;
78750;SDS011;68070;50.954;11.060;2023-03-13T08:17:13;1.90;;;1.10;;
78750;SDS011;68070;50.954;11.060;2023-03-13T08:19:58;1.00;;;0.60;;
78750;SDS011;68070;50.954;11.060;2023-03-13T08:22:42;2.20;;;0.80;;
78750;SDS011;68070;50.954;11.060;2023-03-13T08:25:27;2.00;;;1.00;;
78750;SDS011;68070;50.954;11.060;2023-03-13T08:28:11;1.70;;;1.00;;
78750;SDS011;68070;50.954;11.060;2023-03-13T08:30:56;0.70;;;0.40;;
78750;SDS011;68070;50.954;11.060;2023-03-13T08:33:41;1.70;;;1.00;;
78750;SDS011;68070;50.954;11.060;2023-03-13T08:36:34;0.50;;;0.50;;
78750;SDS011;68070;50.954;11.060;2023-03-13T08:39:19;0.30;;;0.30;;
78750;SDS011;68070;50.954;11.060;2023-03-13T08:42:04;0.80;;;0.60;;
78750;SDS011;68070;50.954;11.060;2023-03-13T08:44:50;0.60;;;0.40;;
78750;SDS011;68070;50.954;11.060;2023-03-13T08:47:34;1.10;;;0.50;;
78750;SDS011;68070;50.954;11.060;2023-03-13T08:50:19;0.90;;;0.50;;
78750;SDS011;68070;50.954;11.060;2023-03-13T08:53:03;0.20;;;0.20;;
78750;SDS011;68070;50.954;11.060;2023-03-13T08:55:51;1.00;;;0.70;;
78750;SDS011;68070;50.954;11.060;2023-03-13T08:58:36;0.50;;;0.40;;
78750;SDS011;68070;50.954;11.060;2023-03-13T09:01:22;0.70;;;0.50;;
78750;SDS011;68070;50.954;11.060;2023-03-13T09:04:08;0.50;;;0.50;;
78750;SDS011;68070;50.954;11.060;2023-03-13T09:06:53;0.30;;;0.30;;
78750;SDS011;68070;50.954;11.060;2023-03-13T09:09:37;0.40;;;0.40;;
78750;SDS011;68070;50.954;11.060;2023-03-13T09:12:22;0.40;;;0.40;;
78750;SDS011;68070;50.954;11.060;2023-03-13T09:15:06;0.80;;;0.60;;
78750;SDS011;68070;50.954;11.060;2023-03-13T09:17:51;0.70;;;0.40;;
78750;SDS011;68070;50.954;11.060;2023-03-13T09:20:36;0.50;;;0.50;;
78750;SDS011;68070;50.954;11.060;2023-03-13T09:23:21;0.10;;;0.10;;
78750;SDS011;68070;50.954;11.060;2023-03-13T09:26:07;0.70;;;0.50;;
78750;SDS011;68070;50.954;11.060;2023-03-13T09:28:52;0.60;;;0.50;;
78750;SDS011;68070;50.954;11.060;2023-03-13T09:31:38;0.70;;;0.60;;
78750;SDS011;68070;50.954;11.060;2023-03-13T09:34:24;0.90;;;0.60;;
78750;SDS011;68070;50.954;11.060;2023-03-13T09:37:08;0.40;;;0.40;;
78750;SDS011;68070;50.954;11.060;2023-03-13T09:39:53;1.20;;;0.80;;
78750;SDS011;68070;50.954;11.060;2023-03-13T09:42:47;0.50;;;0.50;;
78750;SDS011;68070;50.954;11.060;2023-03-13T09:45:35;1.10;;;0.70;;
78750;SDS011;68070;50.954;11.060;2023-03-13T09:48:33;0.40;;;0.40;;
78750;SDS011;68070;50.954;11.060;2023-03-13T09:54:22;0.70;;;0.50;;
78750;SDS011;68070;50.954;11.060;2023-03-13T09:57:17;1.40;;;1.10;;
78750;SDS011;68070;50.954;11.060;2023-03-13T10:00:10;2.40;;;0.80;;
78750;SDS011;68070;50.954;11.060;2023-03-13T10:03:04;1.00;;;0.90;;
78750;SDS011;68070;50.954;11.060;2023-03-13T10:05:59;0.40;;;0.40;;
78750;SDS011;68070;50.954;11.060;2023-03-13T10:11:37;0.40;;;0.40;;
78750;SDS011;68070;50.954;11.060;2023-03-13T10:14:34;1.20;;;0.70;;
78750;SDS011;68070;50.954;11.060;2023-03-13T10:20:22;1.40;;;0.70;;
78750;SDS011;68070;50.954;11.060;2023-03-13T10:26:33;0.50;;;0.50;;
78750;SDS011;68070;50.954;11.060;2023-03-13T10:29:22;0.40;;;0.40;;
78750;SDS011;68070;50.954;11.060;2023-03-13T10:32:09;0.40;;;0.40;;
78750;SDS011;68070;50.954;11.060;2023-03-13T10:34:58;0.50;;;0.50;;
78750;SDS011;68070;50.954;11.060;2023-03-13T10:37:44;2.10;;;1.10;;
78750;SDS011;68070;50.954;11.060;2023-03-13T10:40:29;3.40;;;0.60;;
78750;SDS011;68070;50.954;11.060;2023-03-13T10:43:17;0.60;;;0.60;;
78750;SDS011;68070;50.954;11.060;2023-03-13T10:46:03;1.20;;;0.90;;
78750;SDS011;68070;50.954;11.060;2023-03-13T10:48:49;2.80;;;0.90;;
78750;SDS011;68070;50.954;11.060;2023-03-13T10:51:39;1.00;;;0.70;;
78750;SDS011;68070;50.954;11.060;2023-03-13T10:54:32;0.60;;;0.60;;
78750;SDS011;68070;50.954;11.060;2023-03-13T10:57:27;2.60;;;0.40;;
78750;SDS011;68070;50.954;11.060;2023-03-13T11:03:17;1.40;;;1.10;;
78750;SDS011;68070;50.954;11.060;2023-03-13T11:06:14;1.90;;;0.80;;
78750;SDS011;68070;50.954;11.060;2023-03-13T11:09:16;0.90;;;0.70;;
78750;SDS011;68070;50.954;11.060;2023-03-13T11:12:03;1.50;;;1.00;;
78750;SDS011;68070;50.954;11.060;2023-03-13T11:14:56;0.80;;;0.70;;
78750;SDS011;68070;50.954;11.060;2023-03-13T11:17:42;0.80;;;0.70;;
78750;SDS011;68070;50.954;11.060;2023-03-13T11:20:34;1.30;;;0.90;;
78750;SDS011;68070;50.954;11.060;2023-03-13T11:23:25;0.90;;;0.70;;
78750;SDS011;68070;50.954;11.060;2023-03-13T11:26:18;1.90;;;0.60;;
78750;SDS011;68070;50.954;11.060;2023-03-13T11:29:14;1.40;;;1.00;;
78750;SDS011;68070;50.954;11.060;2023-03-13T11:32:02;1.70;;;1.10;;
78750;SDS011;68070;50.954;11.060;2023-03-13T11:34:56;4.70;;;1.40;;
78750;SDS011;68070;50.954;11.060;2023-03-13T11:37:43;1.40;;;1.20;;
78750;SDS011;68070;50.954;11.060;2023-03-13T11:40:30;1.50;;;0.90;;
78750;SDS011;68070;50.954;11.060;2023-03-13T11:43:25;3.60;;;1.50;;
78750;SDS011;68070;50.954;11.060;2023-03-13T11:52:08;2.00;;;1.20;;
78750;SDS011;68070;50.954;11.060;2023-03-13T11:55:12;1.90;;;1.10;;
78750;SDS011;68070;50.954;11.060;2023-03-13T12:01:18;1.20;;;0.90;;
78750;SDS011;68070;50.954;11.060;2023-03-13T12:07:00;1.40;;;1.00;;
78750;SDS011;68070;50.954;11.060;2023-03-13T12:09:53;1.60;;;1.10;;
78750;SDS011;68070;50.954;11.060;2023-03-13T12:12:45;2.50;;;1.40;;
78750;SDS011;68070;50.954;11.060;2023-03-13T12:15:36;3.00;;;1.60;;
78750;SDS011;68070;50.954;11.060;2023-03-13T12:18:29;1.90;;;1.20;;
78750;SDS011;68070;50.954;11.060;2023-03-13T12:21:20;2.10;;;1.30;;
78750;SDS011;68070;50.954;11.060;2023-03-13T12:33:18;1.50;;;1.10;;
78750;SDS011;68070;50.954;11.060;2023-03-13T12:36:21;1.90;;;1.00;;
78750;SDS011;68070;50.954;11.060;2023-03-13T12:45:07;1.60;;;0.80;;
78750;SDS011;68070;50.954;11.060;2023-03-13T12:48:16;1.40;;;1.20;;
78750;SDS011;68070;50.954;11.060;2023-03-13T12:57:12;1.70;;;1.20;;
78750;SDS011;68070;50.954;11.060;2023-03-13T13:00:06;1.00;;;0.90;;
78750;SDS011;68070;50.954;11.060;2023-03-13T13:06:12;1.00;;;0.80;;
78750;SDS011;68070;50.954;11.060;2023-03-13T13:09:18;0.80;;;0.80;;
78750;SDS011;68070;50.954;11.060;2023-03-13T13:12:21;1.70;;;1.30;;
78750;SDS011;68070;50.954;11.060;2023-03-13T13:18:24;1.60;;;0.90;;
78750;SDS011;68070;50.954;11.060;2023-03-13T13:24:37;1.30;;;0.80;;
78750;SDS011;68070;50.954;11.060;2023-03-13T13:38:52;5.20;;;1.40;;
78750;SDS011;68070;50.954;11.060;2023-03-13T13:41:38;2.40;;;1.40;;
78750;SDS011;68070;50.954;11.060;2023-03-13T13:44:24;1.80;;;0.90;;
78750;SDS011;68070;50.954;11.060;2023-03-13T13:47:21;1.30;;;1.00;;
78750;SDS011;68070;50.954;11.060;2023-03-13T13:50:18;1.40;;;1.30;;
78750;SDS011;68070;50.954;11.060;2023-03-13T13:56:33;1.40;;;1.10;;
78750;SDS011;68070;50.954;11.060;2023-03-13T14:04:59;1.70;;;1.30;;
78750;SDS011;68070;50.954;11.060;2023-03-13T14:10:40;1.10;;;0.70;;
78750;SDS011;68070;50.954;11.060;2023-03-13T14:13:27;1.70;;;1.20;;
78750;SDS011;68070;50.954;11.060;2023-03-13T14:16:21;1.70;;;1.40;;
78750;SDS011;68070;50.954;11.060;2023-03-13T14:22:24;1.20;;;1.00;;
78750;SDS011;68070;50.954;11.060;2023-03-13T14:25:09;0.90;;;0.70;;
78750;SDS011;68070;50.954;11.060;2023-03-13T14:27:53;1.10;;;1.00;;
78750;SDS011;68070;50.954;11.060;2023-03-13T14:30:41;1.60;;;1.10;;
78750;SDS011;68070;50.954;11.060;2023-03-13T14:33:27;2.80;;;1.40;;
78750;SDS011;68070;50.954;11.060;2023-03-13T14:36:11;3.30;;;1.20;;
78750;SDS011;68070;50.954;11.060;2023-03-13T14:38:57;2.70;;;1.40;;
78750;SDS011;68070;50.954;11.060;2023-03-13T14:41:43;2.80;;;1.60;;
78750;SDS011;68070;50.954;11.060;2023-03-13T14:44:31;2.80;;;1.70;;
78750;SDS011;68070;50.954;11.060;2023-03-13T14:47:24;2.80;;;2.00;;
78750;SDS011;68070;50.954;11.060;2023-03-13T14:50:13;2.00;;;1.30;;
78750;SDS011;68070;50.954;11.060;2023-03-13T14:52:59;2.50;;;1.30;;
78750;SDS011;68070;50.954;11.060;2023-03-13T14:56:07;8.20;;;4.20;;
78750;SDS011;68070;50.954;11.060;2023-03-13T14:58:54;2.70;;;1.80;;
78750;SDS011;68070;50.954;11.060;2023-03-13T15:02:01;3.30;;;1.60;;
78750;SDS011;68070;50.954;11.060;2023-03-13T15:05:03;1.50;;;1.20;;
78750;SDS011;68070;50.954;11.060;2023-03-13T15:10:37;2.50;;;1.50;;
78750;SDS011;68070;50.954;11.060;2023-03-13T15:16:20;1.60;;;1.30;;
78750;SDS011;68070;50.954;11.060;2023-03-13T15:19:06;2.30;;;1.50;;
78750;SDS011;68070;50.954;11.060;2023-03-13T15:21:52;2.40;;;1.40;;
78750;SDS011;68070;50.954;11.060;2023-03-13T15:24:37;3.50;;;1.40;;
78750;SDS011;68070;50.954;11.060;2023-03-13T15:27:23;3.80;;;1.70;;
78750;SDS011;68070;50.954;11.060;2023-03-13T15:30:10;3.80;;;1.40;;
78750;SDS011;68070;50.954;11.060;2023-03-13T15:32:58;2.20;;;1.30;;
78750;SDS011;68070;50.954;11.060;2023-03-13T15:35:43;2.40;;;1.50;;
78750;SDS011;68070;50.954;11.060;2023-03-13T15:38:29;2.20;;;1.80;;
78750;SDS011;68070;50.954;11.060;2023-03-13T15:41:13;3.80;;;1.80;;
78750;SDS011;68070;50.954;11.060;2023-03-13T15:43:57;3.40;;;1.30;;
78750;SDS011;68070;50.954;11.060;2023-03-13T15:46:42;2.80;;;1.50;;
78750;SDS011;68070;50.954;11.060;2023-03-13T15:49:26;3.50;;;1.60;;
78750;SDS011;68070;50.954;11.060;2023-03-13T15:52:16;2.40;;;2.00;;
78750;SDS011;68070;50.954;11.060;2023-03-13T15:55:03;2.70;;;2.00;;
78750;SDS011;68070;50.954;11.060;2023-03-13T15:57:51;1.80;;;1.10;;
78750;SDS011;68070;50.954;11.060;2023-03-13T16:00:36;2.40;;;1.40;;
78750;SDS011;68070;50.954;11.060;2023-03-13T16:03:22;2.10;;;1.60;;
78750;SDS011;68070;50.954;11.060;2023-03-13T16:09:01;4.90;;;1.90;;
78750;SDS011;68070;50.954;11.060;2023-03-13T16:11:48;2.10;;;1.50;;
78750;SDS011;68070;50.954;11.060;2023-03-13T16:14:33;2.10;;;1.40;;
78750;SDS011;68070;50.954;11.060;2023-03-13T16:17:18;3.70;;;1.50;;
78750;SDS011;68070;50.954;11.060;2023-03-13T16:20:03;2.30;;;1.70;;
78750;SDS011;68070;50.954;11.060;2023-03-13T16:22:54;3.70;;;1.80;;
78750;SDS011;68070;50.954;11.060;2023-03-13T16:25:40;4.60;;;1.60;;
78750;SDS011;68070;50.954;11.060;2023-03-13T16:28:24;2.20;;;1.60;;
78750;SDS011;68070;50.954;11.060;2023-03-13T16:34:04;1.80;;;1.40;;
78750;SDS011;68070;50.954;11.060;2023-03-13T16:36:48;3.40;;;1.80;;
78750;SDS011;68070;50.954;11.060;2023-03-13T16:39:33;2.90;;;1.60;;
78750;SDS011;68070;50.954;11.060;2023-03-13T16:42:17;1.80;;;1.50;;
78750;SDS011;68070;50.954;11.060;2023-03-13T16:45:02;2.90;;;1.60;;
78750;SDS011;68070;50.954;11.060;2023-03-13T16:47:48;2.30;;;1.50;;
78750;SDS011;68070;50.954;11.060;2023-03-13T16:50:36;2.20;;;1.50;;
78750;SDS011;68070;50.954;11.060;2023-03-13T16:53:22;3.90;;;1.80;;
78750;SDS011;68070;50.954;11.060;2023-03-13T16:56:10;3.60;;;1.90;;
78750;SDS011;68070;50.954;11.060;2023-03-13T16:59:04;3.50;;;1.70;;
78750;SDS011;68070;50.954;11.060;2023-03-13T17:01:50;3.00;;;1.50;;
78750;SDS011;68070;50.954;11.060;2023-03-13T17:04:35;3.40;;;2.20;;
78750;SDS011;68070;50.954;11.060;2023-03-13T17:07:21;3.40;;;1.60;;
78750;SDS011;68070;50.954;11.060;2023-03-13T17:13:08;4.40;;;2.10;;
78750;SDS011;68070;50.954;11.060;2023-03-13T17:15:52;2.60;;;1.70;;
78750;SDS011;68070;50.954;11.060;2023-03-13T17:18:37;2.60;;;1.60;;
78750;SDS011;68070;50.954;11.060;2023-03-13T17:21:22;2.30;;;1.30;;
78750;SDS011;68070;50.954;11.060;2023-03-13T17:24:08;2.20;;;1.60;;
78750;SDS011;68070;50.954;11.060;2023-03-13T17:26:52;2.40;;;1.30;;
78750;SDS011;68070;50.954;11.060;2023-03-13T17:29:37;2.80;;;1.20;;
78750;SDS011;68070;50.954;11.060;2023-03-13T17:32:21;1.50;;;1.10;;
78750;SDS011;68070;50.954;11.060;2023-03-13T17:35:08;2.70;;;0.80;;
78750;SDS011;68070;50.954;11.060;2023-03-13T17:37:53;1.90;;;0.50;;
78750;SDS011;68070;50.954;11.060;2023-03-13T17:40:38;1.40;;;0.90;;
78750;SDS011;68070;50.954;11.060;2023-03-13T17:43:24;3.90;;;1.80;;
78750;SDS011;68070;50.954;11.060;2023-03-13T17:46:13;1.80;;;0.70;;
78750;SDS011;68070;50.954;11.060;2023-03-13T17:48:58;0.80;;;0.70;;
78750;SDS011;68070;50.954;11.060;2023-03-13T17:51:43;2.00;;;1.10;;
78750;SDS011;68070;50.954;11.060;2023-03-13T17:54:29;1.50;;;0.80;;
78750;SDS011;68070;50.954;11.060;2023-03-13T17:57:14;2.70;;;1.70;;
78750;SDS011;68070;50.954;11.060;2023-03-13T18:00:00;1.50;;;1.00;;
78750;SDS011;68070;50.954;11.060;2023-03-13T18:02:45;2.40;;;1.20;;
78750;SDS011;68070;50.954;11.060;2023-03-13T18:05:30;2.20;;;1.20;;
78750;SDS011;68070;50.954;11.060;2023-03-13T18:08:14;1.60;;;1.00;;
78750;SDS011;68070;50.954;11.060;2023-03-13T18:10:59;1.60;;;1.00;;
78750;SDS011;68070;50.954;11.060;2023-03-13T18:13:44;2.90;;;1.70;;
78750;SDS011;68070;50.954;11.060;2023-03-13T18:16:30;2.20;;;1.30;;
78750;SDS011;68070;50.954;11.060;2023-03-13T18:19:30;1.20;;;1.00;;
78750;SDS011;68070;50.954;11.060;2023-03-13T18:22:16;1.40;;;0.80;;
78750;SDS011;68070;50.954;11.060;2023-03-13T18:25:04;2.90;;;1.10;;
78750;SDS011;68070;50.954;11.060;2023-03-13T18:27:49;2.40;;;1.00;;
78750;SDS011;68070;50.954;11.060;2023-03-13T18:30:33;1.20;;;0.80;;
78750;SDS011;68070;50.954;11.060;2023-03-13T18:33:18;0.60;;;0.60;;
78750;SDS011;68070;50.954;11.060;2023-03-13T18:36:08;0.90;;;0.90;;